Time;durP1;ratioP1;P1;durP2;ratioP2;P2;SDS_P1;SDS_P2;PMS_P1;PMS_P2;Temp;Humidity;BMP_temperature;BMP_pressure;BME280_temperature;BME280_humidity;BME280_pressure;Samples;Min_cycle;Max_cycle;Signal;HPM_P1;HPM_P2
2022/04/18 00:01:30;;;;;;;14.53;12.90;;;;;;;7.08;61.22;101075.03;5041977;28;20270;-74
2022/04/18 00:03:56;;;;;;;16.50;13.33;;;;;;;7.05;61.88;101072.38;5044847;28;20330;-74
2022/04/18 00:06:23;;;;;;;17.50;14.60;;;;;;;6.91;61.90;101061.94;5043446;28;20207;-74
2022/04/18 00:08:50;;;;;;;14.40;12.97;;;;;;;6.77;62.38;101043.69;5041986;28;20255;-74
2022/04/18 00:11:17;;;;;;;15.80;13.40;;;;;;;6.76;63.46;101021.19;5041019;28;20767;-74
2022/04/18 00:13:43;;;;;;;14.07;12.67;;;;;;;6.79;63.91;101016.00;5040608;28;20267;-74
2022/04/18 00:16:10;;;;;;;13.40;12.20;;;;;;;6.83;63.55;101006.53;5042888;28;20203;-75
2022/04/18 00:18:36;;;;;;;14.37;11.80;;;;;;;6.88;62.39;101016.06;5039992;28;20218;-74
2022/04/18 00:21:03;;;;;;;12.87;11.37;;;;;;;6.92;62.39;101025.59;5043039;28;20232;-74
2022/04/18 00:23:29;;;;;;;13.63;11.20;;;;;;;6.94;62.45;101039.47;5041825;28;20248;-74
2022/04/18 00:25:57;;;;;;;12.00;10.80;;;;;;;6.83;63.37;101027.28;5041551;28;20212;-74
2022/04/18 00:28:23;;;;;;;13.27;11.87;;;;;;;6.81;62.90;101027.25;5043123;28;20200;-74
2022/04/18 00:30:50;;;;;;;12.60;11.30;;;;;;;6.79;63.22;101015.16;5040349;28;20228;-74
2022/04/18 00:33:16;;;;;;;13.03;11.83;;;;;;;6.71;63.52;101002.13;5039650;28;20598;-74
2022/04/18 00:35:43;;;;;;;12.30;10.97;;;;;;;6.69;63.63;101004.72;5040355;28;20206;-74
2022/04/18 00:38:09;;;;;;;13.70;12.37;;;;;;;6.63;64.12;101001.22;5044052;28;20259;-74
2022/04/18 00:40:35;;;;;;;14.40;11.90;;;;;;;6.61;63.77;101006.38;5044873;28;20226;-74
2022/04/18 00:43:04;;;;;;;13.53;12.00;;;;;;;6.61;63.44;101002.94;5042027;28;20235;-74
2022/04/18 00:45:31;;;;;;;14.13;12.43;;;;;;;6.54;64.03;100991.63;5042089;28;20713;-74
2022/04/18 00:47:58;;;;;;;13.77;12.47;;;;;;;6.53;63.88;100992.50;5042227;28;20550;-74
2022/04/18 00:50:26;;;;;;;13.83;12.53;;;;;;;6.51;64.11;100983.84;5040407;28;20220;-74
2022/04/18 00:52:54;;;;;;;12.80;11.57;;;;;;;6.45;64.43;100965.66;5042150;28;20342;-74
2022/04/18 00:55:22;;;;;;;12.83;11.53;;;;;;;6.51;64.03;100970.88;5042499;28;20259;-74
2022/04/18 00:57:49;;;;;;;12.30;11.03;;;;;;;6.59;62.66;100997.72;5037312;28;20653;-74
2022/04/18 01:00:17;;;;;;;13.57;12.17;;;;;;;6.63;62.94;101011.59;5042387;28;20227;-74
2022/04/18 01:02:43;;;;;;;12.43;11.30;;;;;;;6.61;62.21;101016.75;5042326;28;20208;-74
2022/04/18 01:05:10;;;;;;;13.23;11.93;;;;;;;6.58;63.48;101006.38;5038225;28;20204;-74
2022/04/18 01:07:36;;;;;;;13.30;12.00;;;;;;;6.55;63.59;101001.16;5043452;28;20528;-74
2022/04/18 01:10:05;;;;;;;12.30;11.10;;;;;;;6.54;63.58;100994.22;5041998;28;20225;-74
2022/04/18 01:12:31;;;;;;;13.60;11.27;;;;;;;6.52;63.56;100988.16;5036899;28;20255;-74
2022/04/18 01:14:58;;;;;;;12.83;11.53;;;;;;;6.46;64.27;100973.47;5031764;28;20242;-74
2022/04/18 01:17:27;;;;;;;11.30;10.20;;;;;;;6.53;63.96;100966.56;5030856;28;20567;-74
2022/04/18 01:19:53;;;;;;;11.90;10.23;;;;;;;6.56;63.32;100975.25;5031861;28;20226;-75
2022/04/18 01:22:22;;;;;;;12.57;10.53;;;;;;;6.59;62.35;101000.31;5031923;28;20278;-74
2022/04/18 01:30:17;;;;;;;12.53;10.33;;;;;;;6.68;60.11;101062.66;5031766;28;20278;-74
2022/04/18 01:32:43;;;;;;;11.27;8.90;;;;;;;6.71;59.96;101067.00;5035698;28;20213;-75
2022/04/18 01:35:10;;;;;;;10.03;9.13;;;;;;;6.72;60.14;101071.34;5035580;28;20674;-75
2022/04/18 01:37:38;;;;;;;9.80;8.90;;;;;;;6.72;61.23;101079.13;5035938;28;20677;-75
2022/04/18 01:40:06;;;;;;;9.53;8.73;;;;;;;6.53;62.23;101060.81;5035656;28;20233;-74
2022/04/18 01:42:32;;;;;;;9.07;8.27;;;;;;;6.56;61.33;101047.88;5035721;28;20263;-74
2022/04/18 01:45:00;;;;;;;9.47;8.47;;;;;;;6.49;62.38;101019.28;5035488;28;20222;-74
2022/04/18 01:47:26;;;;;;;9.90;8.13;;;;;;;6.38;63.76;100988.06;5035862;28;20303;-75
2022/04/18 01:49:53;;;;;;;8.87;7.97;;;;;;;6.29;63.93;100967.28;5035443;28;20662;-75
2022/04/18 01:52:19;;;;;;;7.67;6.93;;;;;;;6.24;64.49;100940.44;5035523;28;20266;-74
2022/04/18 01:54:47;;;;;;;8.33;7.63;;;;;;;6.21;64.37;100932.66;5035080;28;20299;-74
2022/04/18 01:57:14;;;;;;;8.10;7.37;;;;;;;6.20;64.73;100933.50;5035575;28;20626;-74
2022/04/18 01:59:42;;;;;;;8.53;7.60;;;;;;;6.25;62.55;100949.97;5035534;28;20213;-74
2022/04/18 02:02:09;;;;;;;8.27;7.57;;;;;;;6.23;62.07;100999.22;5035454;28;20206;-74
2022/04/18 02:04:35;;;;;;;8.90;8.00;;;;;;;6.22;62.22;101009.56;5035191;28;20281;-74
2022/04/18 02:07:02;;;;;;;8.47;7.67;;;;;;;6.16;63.96;100993.13;5035287;28;20300;-74
2022/04/18 02:09:28;;;;;;;8.60;7.80;;;;;;;6.13;63.36;100982.72;5035045;28;20208;-74
2022/04/18 02:11:56;;;;;;;8.07;7.27;;;;;;;6.06;63.96;100974.88;5035230;28;20287;-75
2022/04/18 02:14:23;;;;;;;7.97;7.17;;;;;;;6.07;63.94;100954.16;5034844;28;20775;-74
2022/04/18 02:16:49;;;;;;;8.77;7.80;;;;;;;6.11;63.84;100955.91;5035199;28;20205;-74
2022/04/18 02:19:15;;;;;;;8.20;7.40;;;;;;;6.05;64.85;100942.06;5034900;28;20213;-74
2022/04/18 02:21:42;;;;;;;7.37;6.77;;;;;;;6.00;65.41;100923.84;5015099;28;20769;-74
2022/04/18 02:24:08;;;;;;;7.20;6.60;;;;;;;6.02;65.27;100896.22;5014928;28;20349;-74
2022/04/18 02:26:35;;;;;;;7.97;7.27;;;;;;;5.95;64.75;100900.50;5015263;28;20215;-74
2022/04/18 02:29:03;;;;;;;7.37;6.70;;;;;;;5.92;64.91;100922.91;5015260;28;20220;-75
2022/04/18 02:31:29;;;;;;;7.20;6.57;;;;;;;5.93;64.44;100925.50;5015029;28;20229;-74
2022/04/18 02:33:54;;;;;;;8.53;7.83;;;;;;;5.92;62.02;100970.41;5014822;28;20229;-74
2022/04/18 02:36:21;;;;;;;8.83;8.07;;;;;;;5.99;61.93;100996.44;5014915;28;20212;-74
2022/04/18 02:38:47;;;;;;;7.33;6.63;;;;;;;6.03;61.59;101013.75;5014997;28;20392;-75
2022/04/18 02:41:14;;;;;;;6.77;6.13;;;;;;;6.03;61.13;101019.78;5014695;28;20278;-74
2022/04/18 02:43:40;;;;;;;7.00;6.17;;;;;;;5.99;61.71;101036.16;5014399;28;20209;-74
2022/04/18 02:46:08;;;;;;;7.13;6.40;;;;;;;5.77;62.64;101004.81;5014870;28;20208;-74
2022/04/18 02:48:35;;;;;;;7.60;6.90;;;;;;;5.64;63.34;100992.59;5025416;28;20217;-74
2022/04/18 02:51:01;;;;;;;7.57;6.87;;;;;;;5.45;64.14;100962.19;5034226;28;20225;-74
2022/04/18 02:53:27;;;;;;;7.67;6.97;;;;;;;5.43;64.36;100957.00;5034232;28;20653;-74
2022/04/18 02:55:54;;;;;;;7.77;7.07;;;;;;;5.35;64.98;100933.63;5034333;28;20208;-74
2022/04/18 02:58:20;;;;;;;8.37;7.50;;;;;;;5.39;64.60;100911.19;5034357;28;20255;-74
2022/04/18 03:00:47;;;;;;;9.00;8.13;;;;;;;5.33;65.51;100906.88;5034537;28;20283;-74
2022/04/18 03:03:14;;;;;;;8.83;7.97;;;;;;;5.27;65.65;100908.50;5034287;28;20255;-74
2022/04/18 03:05:41;;;;;;;8.37;7.67;;;;;;;5.21;65.98;100882.56;5033865;28;20259;-74
2022/04/18 03:08:08;;;;;;;8.67;7.87;;;;;;;5.16;66.18;100869.59;5034373;28;20618;-74
2022/04/18 03:13:19;;;;;;;7.83;7.03;;;;;;;4.99;67.17;100861.63;5033953;28;20234;-74
2022/04/18 03:15:45;;;;;;;7.47;6.83;;;;;;;4.98;67.68;100841.81;5034193;28;20575;-74
2022/04/18 03:18:12;;;;;;;8.60;7.70;;;;;;;4.89;68.51;100811.50;5033666;28;20256;-74
2022/04/18 03:20:39;;;;;;;10.60;8.87;;;;;;;5.05;67.03;100822.03;5033851;28;20225;-74
2022/04/18 03:23:07;;;;;;;9.63;8.37;;;;;;;5.06;66.75;100841.88;5033856;28;20674;-74
2022/04/18 03:25:34;;;;;;;10.50;9.27;;;;;;;4.98;67.08;100839.22;5033642;28;20239;-74
2022/04/18 03:28:00;;;;;;;10.43;9.33;;;;;;;4.93;66.72;100846.03;5033977;28;20211;-74
2022/04/18 03:30:26;;;;;;;11.23;10.13;;;;;;;4.90;66.62;100846.88;5033916;28;20294;-74
2022/04/18 03:32:53;;;;;;;10.23;9.23;;;;;;;4.80;67.70;100828.66;5033724;28;20284;-74
2022/04/18 03:35:19;;;;;;;10.47;9.47;;;;;;;4.79;67.61;100812.28;5033648;28;20233;-74
2022/04/18 03:40:31;;;;;;;9.93;8.07;;;;;;;4.75;66.33;100831.19;5033740;28;20263;-74
2022/04/18 03:42:57;;;;;;;9.57;8.57;;;;;;;4.74;66.63;100845.84;5033561;28;20202;-74
2022/04/18 03:45:24;;;;;;;10.17;8.63;;;;;;;4.82;66.44;100845.94;5033425;28;20276;-74
2022/04/18 03:47:51;;;;;;;9.10;8.30;;;;;;;4.89;66.71;100847.72;5033552;28;20258;-74
2022/04/18 03:50:17;;;;;;;9.03;8.20;;;;;;;4.85;67.88;100822.69;5033558;28;20313;-74
2022/04/18 03:52:44;;;;;;;10.00;9.10;;;;;;;4.82;67.78;100816.63;5033253;28;20212;-74
2022/04/18 03:55:12;;;;;;;10.10;9.10;;;;;;;4.78;68.71;100789.88;5032128;28;20236;-74
2022/04/18 03:57:38;;;;;;;10.33;9.40;;;;;;;4.73;69.22;100768.25;5033030;28;20574;-74
2022/04/18 04:00:07;;;;;;;10.53;9.60;;;;;;;4.68;69.12;100757.88;5033098;28;20779;-74
2022/04/18 04:02:33;;;;;;;9.20;8.30;;;;;;;4.72;68.47;100763.94;5033250;28;20680;-74
2022/04/18 04:05:00;;;;;;;9.90;9.00;;;;;;;4.77;68.28;100772.59;5033051;28;20255;-74
2022/04/18 04:07:26;;;;;;;9.20;8.30;;;;;;;4.72;68.16;100779.47;5033104;28;20252;-74
2022/04/18 04:09:53;;;;;;;8.70;7.90;;;;;;;4.72;67.81;100798.41;5033262;28;20275;-74
2022/04/18 04:12:24;;;;;;;9.30;8.30;;;;;;;4.63;68.14;100800.91;5032802;28;20731;-74
2022/04/18 04:14:51;;;;;;;9.03;8.23;;;;;;;4.67;67.73;100792.31;5032834;28;20232;-74
2022/04/18 04:17:18;;;;;;;10.70;9.67;;;;;;;4.64;68.52;100784.56;5032994;28;20215;-74
2022/04/18 04:19:44;;;;;;;10.03;9.13;;;;;;;4.67;68.08;100783.72;5032631;28;20204;-74
2022/04/18 04:22:11;;;;;;;11.13;9.23;;;;;;;4.64;68.22;100786.25;5032818;28;20594;-74
2022/04/18 04:24:37;;;;;;;10.77;9.47;;;;;;;4.63;68.13;100785.38;5032356;28;20674;-74
2022/04/18 04:27:04;;;;;;;10.10;8.80;;;;;;;4.66;68.47;100787.13;5032466;28;20217;-74
2022/04/18 04:29:32;;;;;;;11.60;10.47;;;;;;;4.54;68.41;100788.75;5032831;28;20216;-74
2022/04/18 04:31:59;;;;;;;11.17;10.07;;;;;;;4.54;68.60;100770.66;5032676;28;20602;-74
2022/04/18 04:34:26;;;;;;;12.60;11.43;;;;;;;4.61;68.02;100778.47;5032513;28;20236;-75
2022/04/18 04:36:52;;;;;;;10.10;9.17;;;;;;;4.72;67.38;100794.97;5032387;28;20265;-74
2022/04/18 04:39:18;;;;;;;11.60;10.53;;;;;;;4.77;67.12;100811.38;5032364;28;20269;-74
2022/04/18 04:41:45;;;;;;;11.00;9.87;;;;;;;4.85;66.78;100816.66;5032186;28;20637;-74
2022/04/18 04:44:12;;;;;;;11.30;10.07;;;;;;;4.84;66.70;100831.31;5032245;28;20208;-74
2022/04/18 04:46:39;;;;;;;10.50;9.40;;;;;;;4.85;66.14;100840.78;5032694;28;20216;-74
2022/04/18 04:49:07;;;;;;;11.20;10.20;;;;;;;4.95;66.33;100839.16;5032100;28;20274;-75
2022/04/18 04:51:33;;;;;;;11.30;10.23;;;;;;;5.02;66.43;100842.72;5032189;28;20717;-74
2022/04/18 04:54:00;;;;;;;11.10;10.07;;;;;;;4.99;66.82;100833.16;5031704;28;20705;-74
2022/04/18 04:56:28;;;;;;;10.87;9.80;;;;;;;5.05;66.58;100833.22;5032477;28;20695;-74
2022/04/18 04:58:54;;;;;;;11.07;9.80;;;;;;;5.14;66.42;100838.50;5032304;28;20579;-74
2022/04/18 05:01:21;;;;;;;11.00;10.00;;;;;;;5.18;66.32;100831.66;5032035;28;20586;-75
2022/04/18 05:03:49;;;;;;;11.90;10.63;;;;;;;5.16;66.61;100835.94;5031776;28;20670;-74
2022/04/18 05:06:15;;;;;;;11.67;10.67;;;;;;;5.13;64.87;100866.94;5031801;28;20265;-75
2022/04/18 05:08:42;;;;;;;11.53;10.50;;;;;;;5.19;65.46;100879.94;5031803;28;20232;-74
2022/04/18 05:11:08;;;;;;;11.67;10.40;;;;;;;5.28;65.25;100874.00;5032033;28;20239;-74
2022/04/18 05:13:35;;;;;;;11.10;10.10;;;;;;;5.28;66.48;100841.22;5031831;28;20698;-74
2022/04/18 05:16:01;;;;;;;10.83;9.77;;;;;;;5.30;66.79;100836.94;5031871;28;20227;-74
2022/04/18 05:18:28;;;;;;;10.80;9.73;;;;;;;5.20;67.64;100818.72;5031769;28;20220;-74
2022/04/18 05:20:57;;;;;;;10.53;9.53;;;;;;;5.29;67.46;100800.66;5031672;28;20585;-74
2022/04/18 05:23:23;;;;;;;12.20;11.03;;;;;;;5.31;66.87;100822.25;5031790;28;20217;-74
2022/04/18 05:25:49;;;;;;;11.40;10.37;;;;;;;5.37;67.71;100815.44;5031684;28;20240;-74
2022/04/18 05:28:16;;;;;;;11.87;10.57;;;;;;;5.34;67.54;100810.22;5031761;28;20743;-74
2022/04/18 05:30:43;;;;;;;10.53;9.43;;;;;;;5.38;67.50;100814.56;5031771;28;20229;-74
2022/04/18 05:33:09;;;;;;;9.50;8.60;;;;;;;5.34;68.99;100778.28;5031756;28;20212;-74
2022/04/18 05:35:36;;;;;;;10.23;9.27;;;;;;;5.34;69.25;100768.81;5031299;28;20295;-74
2022/04/18 05:38:04;;;;;;;9.13;8.43;;;;;;;5.37;68.95;100779.19;5031979;28;20211;-74
2022/04/18 05:40:31;;;;;;;10.03;9.13;;;;;;;5.42;68.51;100778.34;5030965;28;20287;-74
2022/04/18 05:42:58;;;;;;;10.50;9.60;;;;;;;5.44;68.48;100779.22;5031897;28;20354;-74
2022/04/18 05:45:25;;;;;;;10.63;9.67;;;;;;;5.53;67.72;100800.00;5048276;22;20294;-74
2022/04/18 05:47:51;;;;;;;11.43;10.20;;;;;;;5.63;67.03;100816.47;5044922;28;20666;-74
2022/04/18 05:50:19;;;;;;;9.80;8.80;;;;;;;5.62;67.17;100817.34;5039342;28;20569;-74
2022/04/18 05:52:46;;;;;;;9.60;8.70;;;;;;;5.49;67.82;100817.25;5031329;28;20580;-73
2022/04/18 05:55:14;;;;;;;9.57;8.77;;;;;;;5.46;67.78;100816.34;5031231;28;20299;-73
2022/04/18 05:57:40;;;;;;;9.40;8.70;;;;;;;5.53;68.12;100820.72;5031449;28;20608;-75
2022/04/18 06:00:07;;;;;;;10.70;9.77;;;;;;;5.54;68.29;100827.63;5031474;28;20225;-74
2022/04/18 06:02:34;;;;;;;11.10;10.20;;;;;;;5.60;68.80;100800.94;5031734;28;20211;-75
2022/04/18 06:05:00;;;;;;;12.77;11.70;;;;;;;5.49;71.75;100765.47;5030853;28;20210;-75
2022/04/18 06:07:27;;;;;;;12.87;11.40;;;;;;;5.31;73.54;100680.78;5031470;28;20217;-75
2022/04/18 06:09:53;;;;;;;12.60;11.37;;;;;;;5.18;74.23;100647.91;5031348;28;20291;-74
2022/04/18 06:12:22;;;;;;;14.03;12.03;;;;;;;5.35;74.21;100624.72;5045474;28;20675;-75
2022/04/18 06:14:48;;;;;;;12.60;11.43;;;;;;;5.50;73.95;100627.38;5043729;28;20223;-75
2022/04/18 06:17:15;;;;;;;12.63;11.43;;;;;;;5.61;72.65;100650.75;5052467;28;20735;-75
2022/04/18 06:19:41;;;;;;;12.90;11.77;;;;;;;5.78;71.46;100682.75;5055019;28;20208;-74
2022/04/18 06:22:08;;;;;;;12.10;11.10;;;;;;;5.86;70.94;100729.41;5054676;28;20207;-75
2022/04/18 06:24:34;;;;;;;12.40;11.30;;;;;;;5.95;71.06;100724.31;5054799;28;20262;-74
2022/04/18 06:27:01;;;;;;;12.40;11.27;;;;;;;5.96;71.22;100728.63;5054976;28;20204;-74
2022/04/18 06:29:29;;;;;;;11.53;10.53;;;;;;;6.10;70.80;100731.28;5055118;28;20233;-74
2022/04/18 06:31:55;;;;;;;11.33;10.30;;;;;;;6.20;70.64;100752.91;5054578;28;20236;-74
2022/04/18 06:34:22;;;;;;;12.77;11.70;;;;;;;6.24;70.69;100746.03;5054238;28;20350;-75
2022/04/18 06:36:48;;;;;;;11.47;10.37;;;;;;;6.31;70.60;100748.66;5054714;28;20261;-75
2022/04/18 06:39:15;;;;;;;11.73;10.73;;;;;;;6.42;69.99;100758.19;5054704;28;20668;-75
2022/04/18 06:41:41;;;;;;;13.57;11.50;;;;;;;6.50;69.66;100777.22;5054508;28;20228;-75
2022/04/18 06:44:07;;;;;;;11.93;10.83;;;;;;;6.58;70.21;100757.41;5045724;28;20734;-75
2022/04/18 06:46:35;;;;;;;10.93;9.97;;;;;;;6.69;70.19;100760.00;5054267;28;20216;-74
2022/04/18 06:49:01;;;;;;;11.97;10.93;;;;;;;6.74;70.22;100760.88;5054287;28;20741;-75
2022/04/18 06:51:28;;;;;;;10.17;9.27;;;;;;;6.86;68.56;100780.81;5053857;28;20227;-75
2022/04/18 06:53:54;;;;;;;9.23;8.53;;;;;;;6.98;67.18;100819.75;5054119;28;20698;-75
2022/04/18 06:59:05;;;;;;;8.80;8.00;;;;;;;7.16;65.17;100904.56;5054361;28;20191;-75
2022/04/18 07:01:31;;;;;;;8.70;8.00;;;;;;;7.21;65.70;100922.75;5053819;28;20232;-75
2022/04/18 07:03:59;;;;;;;9.13;8.33;;;;;;;7.30;65.04;100933.16;5053881;28;20279;-75
2022/04/18 07:06:25;;;;;;;9.60;8.70;;;;;;;7.39;64.48;100935.78;5054262;28;20235;-75
2022/04/18 07:08:52;;;;;;;9.23;8.50;;;;;;;7.48;65.20;100942.72;5054023;28;20685;-74
2022/04/18 07:11:18;;;;;;;8.57;7.87;;;;;;;7.55;64.23;100944.47;5053801;28;20236;-75
2022/04/18 07:13:44;;;;;;;9.60;8.60;;;;;;;7.65;64.37;100947.94;5045627;28;20203;-75
2022/04/18 07:16:11;;;;;;;9.87;8.97;;;;;;;7.76;63.61;100965.28;5053832;28;20698;-75
2022/04/18 07:18:37;;;;;;;9.63;8.73;;;;;;;7.82;63.22;100982.63;5053968;28;20212;-75
2022/04/18 07:21:05;;;;;;;9.10;8.30;;;;;;;7.95;62.94;100981.75;5053519;28;20732;-75
2022/04/18 07:23:32;;;;;;;8.00;7.30;;;;;;;8.07;61.79;101009.50;5053720;28;20202;-72
2022/04/18 07:25:58;;;;;;;10.03;9.07;;;;;;;8.10;61.79;101024.22;5047667;28;20209;-75
2022/04/18 07:28:24;;;;;;;9.30;8.40;;;;;;;8.17;63.27;100986.97;5044072;28;20195;-74
2022/04/18 07:30:51;;;;;;;9.03;8.23;;;;;;;8.21;62.75;100980.91;5043106;28;20722;-74
2022/04/18 07:33:17;;;;;;;9.80;8.83;;;;;;;8.31;62.97;100971.38;5042174;28;20201;-73
2022/04/18 07:35:44;;;;;;;9.53;8.73;;;;;;;8.37;62.93;100993.91;5042292;28;20266;-73
2022/04/18 07:41:10;;;;;;;9.23;8.50;;;;;;;8.73;67.29;100887.16;4951522;28;20236;-74
2022/04/18 07:43:37;;;;;;;10.27;9.27;;;;;;;9.03;71.44;100809.75;4951985;29;20201;-74
2022/04/18 07:46:04;;;;;;;18.77;9.80;;;;;;;9.25;71.87;100805.25;4987504;28;20281;-74
2022/04/18 07:48:31;;;;;;;10.13;9.07;;;;;;;9.31;64.64;100859.91;5033174;28;20238;-73
2022/04/18 07:53:44;;;;;;;10.10;8.53;;;;;;;9.46;66.05;100957.97;5032713;28;20201;-74
2022/04/18 07:56:10;;;;;;;8.23;7.53;;;;;;;9.56;62.41;100984.84;5033773;28;20270;-74
2022/04/18 07:58:37;;;;;;;9.40;8.50;;;;;;;9.76;70.59;100895.22;5033244;28;20210;-74
2022/04/18 08:01:03;;;;;;;9.77;8.50;;;;;;;9.87;64.33;100893.34;5033028;28;20223;-74
2022/04/18 08:03:33;;;;;;;9.73;8.83;;;;;;;9.93;64.50;101026.31;5040806;28;20194;-73
2022/04/18 08:06:00;;;;;;;10.47;9.60;;;;;;;9.96;60.25;101035.88;5042686;28;20671;-74
2022/04/18 08:08:26;;;;;;;8.87;8.07;;;;;;;9.95;60.40;101097.59;5041287;28;20197;-74
2022/04/18 08:10:54;;;;;;;10.67;9.60;;;;;;;10.02;59.73;101101.88;5038230;28;20282;-74
2022/04/18 08:13:20;;;;;;;8.53;7.83;;;;;;;10.01;58.14;101157.53;5044386;28;20208;-74
2022/04/18 08:15:47;;;;;;;9.43;8.57;;;;;;;10.02;58.45;101181.88;5052684;28;20605;-75
2022/04/18 08:18:14;;;;;;;8.33;7.63;;;;;;;10.12;61.72;101066.16;5052543;28;20205;-75
2022/04/18 08:20:40;;;;;;;8.57;7.83;;;;;;;10.17;58.47;101118.31;5052404;28;20607;-75
2022/04/18 08:23:07;;;;;;;9.37;8.60;;;;;;;10.21;58.31;101162.66;5052569;28;20212;-75
2022/04/18 08:25:33;;;;;;;8.63;7.93;;;;;;;10.20;58.48;101184.38;5052239;28;20201;-75
2022/04/18 08:28:01;;;;;;;7.70;7.00;;;;;;;10.27;57.55;101180.88;5052901;28;20216;-75
2022/04/18 08:30:28;;;;;;;8.87;7.97;;;;;;;10.31;57.79;101197.41;5052196;28;20362;-75
2022/04/18 08:32:54;;;;;;;8.00;7.27;;;;;;;10.36;56.83;101207.81;5050827;28;20209;-75
2022/04/18 08:35:21;;;;;;;7.70;7.00;;;;;;;10.44;56.90;101222.56;5051847;28;20229;-75
2022/04/18 08:37:48;;;;;;;8.23;7.43;;;;;;;10.48;58.75;101192.09;5052298;28;20209;-75
2022/04/18 08:40:15;;;;;;;6.63;6.13;;;;;;;10.58;56.71;101201.59;5049485;28;20229;-75
2022/04/18 08:42:43;;;;;;;7.87;7.13;;;;;;;10.65;55.84;101228.53;5047399;28;20208;-75
2022/04/18 08:45:12;;;;;;;7.80;7.13;;;;;;;10.70;55.38;101256.34;5040869;28;20199;-75
2022/04/18 08:53:10;;;;;;;6.60;5.50;;;;;;;10.98;55.88;101270.94;5036103;28;20194;-78
2022/04/18 08:55:37;;;;;;;7.83;6.33;;;;;;;11.06;57.55;101245.63;5035799;28;20229;-78
2022/04/18 08:58:04;;;;;;;7.23;5.50;;;;;;;11.11;54.18;101288.28;5037201;28;20204;-79
2022/04/18 09:00:31;;;;;;;7.33;6.63;;;;;;;11.15;53.18;101326.56;5036126;28;20241;-78
2022/04/18 09:02:58;;;;;;;6.50;5.57;;;;;;;11.19;53.61;101330.03;5037004;28;20260;-78
2022/04/18 09:05:24;;;;;;;7.10;6.50;;;;;;;11.30;54.86;101299.47;5036588;28;20252;-78
2022/04/18 09:07:59;;;;;;;7.73;7.03;;;;;;;11.42;55.42;101307.19;5036931;28;20216;-78
2022/04/18 09:10:26;;;;;;;6.90;6.30;;;;;;;11.55;57.39;101234.75;5035892;28;20232;-78
2022/04/18 09:12:52;;;;;;;7.77;7.07;;;;;;;11.71;57.74;101215.41;5049793;28;20206;-78
2022/04/18 09:15:30;;;;;;;7.23;6.53;;;;;;;11.78;54.84;101223.19;5052948;28;20225;-78
2022/04/18 09:18:06;;;;;;;6.93;6.23;;;;;;;11.83;56.35;101248.41;5055758;28;20196;-78
2022/04/18 09:20:41;;;;;;;8.00;7.40;;;;;;;11.83;54.63;101279.81;5054824;28;20225;-78
2022/04/18 09:23:26;;;;;;;7.87;7.17;;;;;;;11.83;54.34;101287.66;5054882;28;20197;-78
2022/04/18 09:25:57;;;;;;;7.07;6.47;;;;;;;11.91;54.36;101251.84;5054398;28;20235;-77
2022/04/18 09:28:29;;;;;;;7.90;7.13;;;;;;;12.03;52.02;101316.25;5054804;28;20194;-77
2022/04/18 09:30:58;;;;;;;6.90;6.30;;;;;;;12.03;51.30;101362.47;5054725;28;20232;-78
2022/04/18 09:33:29;;;;;;;7.50;6.70;;;;;;;12.05;52.58;101363.31;5054757;28;20209;-78
2022/04/18 09:36:06;;;;;;;7.07;6.43;;;;;;;12.09;54.90;101299.59;5054177;28;20226;-78
2022/04/18 09:38:36;;;;;;;7.07;6.40;;;;;;;12.19;53.05;101295.13;5054506;28;20277;-78
2022/04/18 09:41:03;;;;;;;6.73;6.13;;;;;;;12.28;50.10;101368.31;5054372;28;20682;-78
2022/04/18 09:43:37;;;;;;;7.10;6.40;;;;;;;12.32;50.21;101438.06;5045852;28;20207;-78
2022/04/18 09:46:12;;;;;;;9.00;6.80;;;;;;;12.36;50.81;101418.84;5056176;28;20249;-80
2022/04/18 09:48:42;;;;;;;6.60;5.93;;;;;;;12.43;50.14;101398.72;5056861;28;20228;-77
2022/04/18 09:51:11;;;;;;;6.10;5.50;;;;;;;12.50;48.39;101465.81;5053764;28;20267;-77
2022/04/18 09:53:38;;;;;;;5.43;4.90;;;;;;;12.57;46.58;101529.50;5057012;28;20213;-77
2022/04/18 09:56:06;;;;;;;6.17;4.93;;;;;;;12.55;46.02;101584.53;5057057;28;20230;-78
2022/04/18 09:58:34;;;;;;;4.80;4.13;;;;;;;12.57;44.71;101631.66;5057129;28;20547;-78
2022/04/18 10:01:03;;;;;;;5.40;4.90;;;;;;;12.60;46.08;101644.72;5056615;28;20231;-77
2022/04/18 10:03:30;;;;;;;6.83;6.33;;;;;;;12.63;49.42;101595.78;5057382;28;20213;-78
2022/04/18 10:05:59;;;;;;;5.97;5.43;;;;;;;12.77;48.80;101488.25;5057161;28;20201;-79
2022/04/18 10:08:26;;;;;;;5.47;4.97;;;;;;;12.90;49.85;101423.44;5056943;28;20205;-78
2022/04/18 10:10:53;;;;;;;4.93;4.43;;;;;;;12.95;46.59;101534.34;5057046;28;20230;-77
2022/04/18 10:13:20;;;;;;;5.30;4.90;;;;;;;13.04;46.31;101544.72;5048352;28;20334;-76
2022/04/18 10:15:49;;;;;;;5.43;5.00;;;;;;;13.05;47.25;101532.47;5057284;28;20233;-78
2022/04/18 10:18:17;;;;;;;5.77;5.27;;;;;;;13.10;44.92;101576.13;5057094;28;20201;-78
2022/04/18 10:21:07;;;;;;;5.50;5.00;;;;;;;13.15;44.81;101599.66;5057433;28;20229;-77
2022/04/18 10:23:51;;;;;;;4.80;4.40;;;;;;;13.12;45.92;101623.25;5057272;28;20205;-79
2022/04/18 10:26:50;;;;;;;4.90;4.50;;;;;;;13.16;42.26;101634.59;5057088;28;20228;-79
2022/04/18 10:29:21;;;;;;;3.70;3.40;;;;;;;13.14;41.63;101718.53;5056574;28;20202;-78
2022/04/18 10:31:52;;;;;;;3.73;3.43;;;;;;;13.19;44.19;101705.38;5056208;28;20298;-78
2022/04/18 10:34:22;;;;;;;4.47;4.13;;;;;;;13.28;43.74;101664.19;5056852;28;20271;-79
2022/04/18 10:36:53;;;;;;;4.10;3.80;;;;;;;13.35;44.41;101667.63;5056367;28;20629;-79
2022/04/18 10:39:22;;;;;;;4.97;4.63;;;;;;;13.41;44.05;101627.38;5056334;28;20556;-79
2022/04/18 10:41:50;;;;;;;4.17;3.83;;;;;;;13.56;46.51;101619.31;5055852;28;20233;-79
2022/04/18 10:44:18;;;;;;;4.50;4.10;;;;;;;13.76;44.42;101582.31;5047995;28;20199;-79
2022/04/18 10:47:03;;;;;;;5.30;4.90;;;;;;;13.85;45.88;101591.81;5056063;28;20264;-79
2022/04/18 10:49:31;;;;;;;4.23;3.87;;;;;;;13.82;42.32;101637.34;5055658;28;20244;-79
2022/04/18 10:52:08;;;;;;;4.67;4.37;;;;;;;13.74;42.14;101757.31;5055354;28;20234;-79
2022/04/18 10:54:37;;;;;;;4.63;4.23;;;;;;;13.86;42.58;101704.66;5055136;28;20189;-79
2022/04/18 10:57:06;;;;;;;3.77;3.47;;;;;;;13.96;43.35;101717.69;5054697;28;20703;-79
2022/04/18 10:59:33;;;;;;;5.03;4.60;;;;;;;14.06;41.36;101740.31;5055679;28;20677;-79
2022/04/18 11:02:02;;;;;;;4.43;4.13;;;;;;;14.14;42.68;101725.31;5055210;28;20221;-79
2022/04/18 11:04:30;;;;;;;4.50;4.10;;;;;;;14.32;42.36;101710.19;5054075;28;20224;-79
2022/04/18 11:07:02;;;;;;;5.40;5.00;;;;;;;14.42;41.41;101738.94;5054452;28;20668;-79
2022/04/18 11:09:31;;;;;;;4.40;4.00;;;;;;;14.51;41.77;101735.31;5054402;28;20225;-79
2022/04/18 11:12:06;;;;;;;4.30;3.97;;;;;;;14.60;42.78;101734.34;5054345;28;20231;-79
2022/04/18 11:14:46;;;;;;;4.00;3.70;;;;;;;14.78;40.59;101743.72;5046266;28;20217;-78
2022/04/18 11:17:14;;;;;;;4.10;3.80;;;;;;;14.94;40.57;101784.63;5054325;28;20227;-79
2022/04/18 11:19:42;;;;;;;3.90;3.60;;;;;;;15.04;40.07;101778.38;5055422;28;20199;-79
2022/04/18 11:22:11;;;;;;;4.40;4.03;;;;;;;15.17;39.29;101823.72;5055193;28;20261;-79
2022/04/18 11:24:39;;;;;;;4.97;4.60;;;;;;;15.43;37.58;101865.41;5054853;28;20223;-79
2022/04/18 11:27:09;;;;;;;4.10;3.80;;;;;;;15.69;37.63;101874.63;5054593;28;20235;-79
2022/04/18 11:29:37;;;;;;;4.20;3.90;;;;;;;15.90;39.37;101852.38;5054850;28;20676;-79
2022/04/18 11:32:05;;;;;;;4.07;3.77;;;;;;;16.59;37.24;101860.66;5054568;28;20210;-79
2022/04/18 11:34:33;;;;;;;3.97;3.67;;;;;;;18.02;32.51;101997.34;5054163;28;20620;-79
2022/04/18 11:37:02;;;;;;;4.07;3.77;;;;;;;19.52;30.70;102139.69;5053814;28;20239;-79
2022/04/18 11:39:43;;;;;;;4.53;4.23;;;;;;;21.04;27.55;102241.06;5053928;28;20206;-80
2022/04/18 11:42:15;;;;;;;4.43;4.13;;;;;;;22.07;28.07;102281.72;5045361;28;20198;-77
2022/04/18 11:44:43;;;;;;;4.37;4.07;;;;;;;23.69;25.71;102324.88;5046107;28;20190;-76
2022/04/18 11:47:11;;;;;;;4.87;4.47;;;;;;;24.56;25.32;102328.06;5053880;28;20204;-76
2022/04/18 11:49:38;;;;;;;5.00;4.70;;;;;;;25.56;23.27;102327.59;5055636;28;20824;-80
2022/04/18 11:52:05;;;;;;;6.40;5.80;;;;;;;26.84;22.00;102364.41;5055913;28;20593;-78